Time;durP1;ratioP1;P1;durP2;ratioP2;P2;SDS_P1;SDS_P2;PMS_P1;PMS_P2;Temp;Humidity;BMP_temperature;BMP_pressure;BME280_temperature;BME280_humidity;BME280_pressure;Samples;Min_cycle;Max_cycle;Signal;HPM_P1;HPM_P2
2023/03/13 00:01:08;;;;;;;10.30;9.77;;;;;;;;;;5075432;28;20016;-67
2023/03/13 00:03:33;;;;;;;10.23;9.70;;;;;;;;;;5075427;28;20594;-67
2023/03/13 00:05:59;;;;;;;9.80;9.30;;;;;;;;;;5075487;28;20020;-68
2023/03/13 00:08:24;;;;;;;9.88;9.38;;;;;;;;;;5072250;28;20115;-68
2023/03/13 00:10:50;;;;;;;10.40;9.80;;;;;;;;;;5070575;28;20082;-68
2023/03/13 00:13:15;;;;;;;9.82;9.32;;;;;;;;;;5073746;28;20035;-67
2023/03/13 00:15:40;;;;;;;11.27;10.57;;;;;;;;;;5074014;28;20105;-67
2023/03/13 00:18:06;;;;;;;10.52;9.93;;;;;;;;;;5074539;28;20559;-66
2023/03/13 00:20:31;;;;;;;10.00;9.50;;;;;;;;;;5077063;28;20024;-66
2023/03/13 00:22:56;;;;;;;9.38;8.98;;;;;;;;;;5078578;28;20009;-67
2023/03/13 00:25:21;;;;;;;10.00;9.50;;;;;;;;;;5075098;28;20013;-66
2023/03/13 00:27:48;;;;;;;10.07;9.55;;;;;;;;;;5075589;28;20437;-66
2023/03/13 00:30:13;;;;;;;11.35;10.65;;;;;;;;;;5065129;28;20090;-67
2023/03/13 00:32:43;;;;;;;9.88;9.38;;;;;;;;;;5070795;28;20024;-67
2023/03/13 00:35:08;;;;;;;9.75;9.25;;;;;;;;;;5074713;28;20012;-68
2023/03/13 00:37:33;;;;;;;10.40;9.85;;;;;;;;;;5069222;28;20043;-68
2023/03/13 00:39:59;;;;;;;9.73;9.23;;;;;;;;;;5073101;28;20073;-68
2023/03/13 00:42:24;;;;;;;10.48;9.88;;;;;;;;;;5074351;28;20099;-67
2023/03/13 00:44:49;;;;;;;9.60;9.10;;;;;;;;;;5063428;28;20146;-67
2023/03/13 00:47:15;;;;;;;9.40;8.90;;;;;;;;;;5068691;28;20494;-67
2023/03/13 00:49:40;;;;;;;9.85;9.35;;;;;;;;;;5073439;28;20024;-67
2023/03/13 00:52:05;;;;;;;9.70;9.20;;;;;;;;;;5068570;28;20017;-66
2023/03/13 00:54:31;;;;;;;10.35;9.75;;;;;;;;;;5072570;28;20028;-67
2023/03/13 00:56:56;;;;;;;9.50;9.02;;;;;;;;;;5076232;28;20170;-67
2023/03/13 00:59:21;;;;;;;8.93;8.52;;;;;;;;;;5074264;28;20021;-67
2023/03/13 01:01:47;;;;;;;9.10;8.68;;;;;;;;;;5058754;28;20036;-66
2023/03/13 01:04:12;;;;;;;9.18;8.68;;;;;;;;;;5074128;28;20105;-66
2023/03/13 01:06:41;;;;;;;9.45;8.95;;;;;;;;;;5073138;28;20017;-67
2023/03/13 01:09:07;;;;;;;9.98;9.40;;;;;;;;;;5073864;28;20052;-67
2023/03/13 01:11:34;;;;;;;9.45;8.95;;;;;;;;;;5074124;28;20025;-67
2023/03/13 01:14:01;;;;;;;9.10;8.70;;;;;;;;;;5076149;28;20077;-67
2023/03/13 01:16:28;;;;;;;9.20;8.77;;;;;;;;;;5073535;28;20025;-67
2023/03/13 01:18:54;;;;;;;10.30;9.70;;;;;;;;;;5066422;28;20032;-67
2023/03/13 01:21:20;;;;;;;10.65;10.05;;;;;;;;;;5073627;28;20028;-70
2023/03/13 01:23:46;;;;;;;9.90;9.40;;;;;;;;;;5071507;28;20013;-66
2023/03/13 01:26:12;;;;;;;8.93;8.52;;;;;;;;;;5073859;28;20027;-67
2023/03/13 01:28:37;;;;;;;9.65;9.15;;;;;;;;;;5073793;28;20103;-66
2023/03/13 01:31:17;;;;;;;10.30;9.70;;;;;;;;;;5085730;28;20051;-67
2023/03/13 01:33:42;;;;;;;9.85;9.35;;;;;;;;;;5073060;28;20023;-67
2023/03/13 01:36:08;;;;;;;9.80;9.30;;;;;;;;;;5072238;28;20032;-66
2023/03/13 01:38:33;;;;;;;9.63;9.13;;;;;;;;;;5073172;28;20029;-66
2023/03/13 01:40:59;;;;;;;10.20;9.63;;;;;;;;;;5069079;28;20017;-66
2023/03/13 01:43:28;;;;;;;10.43;9.82;;;;;;;;;;5073058;28;20365;-67
2023/03/13 01:45:57;;;;;;;9.45;8.95;;;;;;;;;;5070203;28;20020;-66
2023/03/13 01:48:25;;;;;;;9.23;8.82;;;;;;;;;;5061890;28;20241;-67
2023/03/13 01:50:53;;;;;;;9.82;9.32;;;;;;;;;;5072367;28;20052;-67
2023/03/13 01:53:18;;;;;;;10.15;9.60;;;;;;;;;;5070492;28;20116;-67
2023/03/13 01:55:43;;;;;;;10.30;9.70;;;;;;;;;;5072523;28;20079;-67
2023/03/13 01:58:09;;;;;;;10.27;9.68;;;;;;;;;;5072175;28;20024;-66
2023/03/13 02:00:35;;;;;;;9.70;9.20;;;;;;;;;;5073193;28;20024;-68
2023/03/13 02:03:07;;;;;;;9.75;9.25;;;;;;;;;;5063935;28;20008;-67
2023/03/13 02:05:33;;;;;;;10.60;10.00;;;;;;;;;;5072114;28;20024;-67
2023/03/13 02:08:03;;;;;;;10.27;9.77;;;;;;;;;;5070509;28;20031;-66
2023/03/13 02:10:30;;;;;;;9.90;9.40;;;;;;;;;;5072903;28;20027;-67
2023/03/13 02:12:56;;;;;;;9.82;9.32;;;;;;;;;;5072975;28;20027;-67
2023/03/13 02:15:23;;;;;;;11.32;10.63;;;;;;;;;;5058428;28;20017;-67
2023/03/13 02:17:49;;;;;;;9.93;9.43;;;;;;;;;;5072363;28;20028;-67
2023/03/13 02:20:15;;;;;;;10.63;10.02;;;;;;;;;;5077736;28;20017;-66
2023/03/13 02:22:51;;;;;;;9.52;9.02;;;;;;;;;;5072754;28;20021;-67
2023/03/13 02:25:22;;;;;;;9.48;9.02;;;;;;;;;;5058991;28;20479;-67
2023/03/13 02:27:49;;;;;;;9.30;8.90;;;;;;;;;;5069548;28;20036;-66
2023/03/13 02:30:14;;;;;;;10.50;9.90;;;;;;;;;;5069011;28;20013;-67
2023/03/13 02:32:40;;;;;;;10.27;9.68;;;;;;;;;;5066085;28;20387;-67
2023/03/13 02:35:07;;;;;;;10.15;9.65;;;;;;;;;;5070987;28;20019;-67
2023/03/13 02:37:33;;;;;;;10.85;10.25;;;;;;;;;;5070666;28;20052;-66
2023/03/13 02:39:59;;;;;;;10.52;9.98;;;;;;;;;;5072176;28;20056;-67
2023/03/13 02:42:27;;;;;;;11.20;10.57;;;;;;;;;;5059247;28;20079;-67
2023/03/13 02:44:52;;;;;;;10.20;9.70;;;;;;;;;;5062731;28;20028;-67
2023/03/13 02:47:19;;;;;;;10.10;9.60;;;;;;;;;;5070940;28;20017;-67
2023/03/13 02:49:44;;;;;;;10.30;9.80;;;;;;;;;;5069616;28;20579;-67
2023/03/13 02:52:12;;;;;;;10.38;9.88;;;;;;;;;;5079865;28;20028;-66
2023/03/13 02:54:38;;;;;;;12.35;11.55;;;;;;;;;;5077288;28;20432;-67
2023/03/13 02:57:04;;;;;;;10.35;9.85;;;;;;;;;;5065018;28;20056;-67
2023/03/13 02:59:30;;;;;;;10.20;9.70;;;;;;;;;;5065977;28;20475;-67
2023/03/13 03:01:55;;;;;;;10.23;9.73;;;;;;;;;;5070466;28;20048;-68
2023/03/13 03:04:22;;;;;;;10.88;10.27;;;;;;;;;;5067975;28;20021;-67
2023/03/13 03:06:48;;;;;;;10.10;9.57;;;;;;;;;;5071496;28;20108;-67
2023/03/13 03:09:13;;;;;;;10.65;10.05;;;;;;;;;;5071615;28;20103;-68
2023/03/13 03:11:38;;;;;;;10.65;10.05;;;;;;;;;;5068397;28;20142;-67
2023/03/13 03:14:04;;;;;;;10.02;9.52;;;;;;;;;;5061559;28;20039;-68
2023/03/13 03:16:30;;;;;;;10.02;9.52;;;;;;;;;;5070431;28;20105;-67
2023/03/13 03:18:55;;;;;;;10.40;9.88;;;;;;;;;;5070499;28;20058;-67
2023/03/13 03:21:22;;;;;;;10.95;10.35;;;;;;;;;;5063013;28;20398;-68
2023/03/13 03:23:48;;;;;;;9.77;9.27;;;;;;;;;;5072534;28;20396;-67
2023/03/13 03:26:13;;;;;;;10.27;9.77;;;;;;;;;;5072698;28;20023;-66
2023/03/13 03:28:39;;;;;;;10.40;9.80;;;;;;;;;;5078506;28;20035;-66
2023/03/13 03:31:04;;;;;;;10.68;10.07;;;;;;;;;;5066939;28;20414;-67
2023/03/13 03:33:30;;;;;;;10.63;10.02;;;;;;;;;;5059514;28;20545;-66
2023/03/13 03:35:59;;;;;;;9.90;9.40;;;;;;;;;;5072472;28;20383;-66
2023/03/13 03:38:24;;;;;;;10.27;9.77;;;;;;;;;;5065198;28;20025;-67
2023/03/13 03:40:49;;;;;;;9.95;9.45;;;;;;;;;;5059167;28;20024;-66
2023/03/13 03:43:15;;;;;;;10.50;9.90;;;;;;;;;;5071520;28;20012;-67
2023/03/13 03:45:40;;;;;;;10.88;10.23;;;;;;;;;;5070208;28;20480;-67
2023/03/13 03:48:05;;;;;;;10.77;10.18;;;;;;;;;;5064951;28;20021;-67
2023/03/13 03:50:31;;;;;;;9.90;9.40;;;;;;;;;;5062008;28;20020;-67
2023/03/13 03:52:56;;;;;;;9.93;9.43;;;;;;;;;;5074778;28;20013;-67
2023/03/13 03:55:21;;;;;;;10.15;9.63;;;;;;;;;;5072378;28;20082;-67
2023/03/13 03:57:47;;;;;;;10.50;9.90;;;;;;;;;;5070956;28;20018;-67
2023/03/13 04:00:14;;;;;;;10.48;9.88;;;;;;;;;;5070914;28;20044;-67
2023/03/13 04:02:40;;;;;;;10.70;10.10;;;;;;;;;;5067725;28;20020;-65
2023/03/13 04:05:05;;;;;;;10.30;9.77;;;;;;;;;;5069589;28;20495;-66
2023/03/13 04:07:30;;;;;;;10.13;9.63;;;;;;;;;;5062786;28;20024;-66
2023/03/13 04:09:56;;;;;;;10.77;10.15;;;;;;;;;;5059596;28;20476;-67
2023/03/13 04:12:21;;;;;;;10.48;9.88;;;;;;;;;;5070639;28;20459;-67
2023/03/13 04:14:46;;;;;;;10.13;9.63;;;;;;;;;;5069058;28;20498;-67
2023/03/13 04:17:12;;;;;;;9.40;9.00;;;;;;;;;;5071049;28;20509;-67
2023/03/13 04:19:37;;;;;;;10.20;9.65;;;;;;;;;;5068282;28;20064;-66
2023/03/13 04:22:02;;;;;;;10.63;10.02;;;;;;;;;;5064874;28;20044;-66
2023/03/13 04:24:28;;;;;;;10.57;9.98;;;;;;;;;;5071164;28;20111;-66
2023/03/13 04:26:53;;;;;;;11.27;10.57;;;;;;;;;;5071211;28;20020;-67
2023/03/13 04:29:18;;;;;;;10.30;9.70;;;;;;;;;;5068959;28;20499;-67
2023/03/13 04:31:44;;;;;;;9.57;9.07;;;;;;;;;;5073739;28;20012;-66
2023/03/13 04:34:09;;;;;;;10.60;10.00;;;;;;;;;;5066242;28;20035;-66
2023/03/13 04:36:34;;;;;;;10.27;9.68;;;;;;;;;;5072330;28;20149;-66
2023/03/13 04:39:00;;;;;;;8.98;8.57;;;;;;;;;;5074516;28;20430;-66
2023/03/13 04:41:25;;;;;;;9.57;9.02;;;;;;;;;;5074080;28;20529;-66
2023/03/13 04:43:50;;;;;;;8.50;8.10;;;;;;;;;;5074454;28;20087;-67
2023/03/13 04:46:17;;;;;;;9.23;8.73;;;;;;;;;;5073915;28;20368;-67
2023/03/13 04:48:42;;;;;;;8.98;8.48;;;;;;;;;;5065403;28;20074;-67
2023/03/13 04:51:08;;;;;;;8.98;8.48;;;;;;;;;;5072801;28;20028;-67
2023/03/13 04:53:33;;;;;;;9.10;8.60;;;;;;;;;;5082678;28;20020;-67
2023/03/13 04:55:58;;;;;;;9.35;8.85;;;;;;;;;;5075810;28;20056;-66
2023/03/13 04:58:24;;;;;;;9.57;9.07;;;;;;;;;;5089315;28;20024;-66
2023/03/13 05:00:49;;;;;;;9.40;8.90;;;;;;;;;;5080693;28;20024;-67
2023/03/13 05:03:14;;;;;;;9.57;9.07;;;;;;;;;;5065903;28;20028;-67
2023/03/13 05:05:39;;;;;;;9.48;8.98;;;;;;;;;;5055107;28;20025;-69
2023/03/13 05:08:05;;;;;;;8.35;7.95;;;;;;;;;;5075034;28;20494;-67
2023/03/13 05:10:30;;;;;;;8.98;8.55;;;;;;;;;;5078414;28;20035;-68
2023/03/13 05:12:55;;;;;;;10.73;10.13;;;;;;;;;;5073839;28;20093;-68
2023/03/13 05:15:21;;;;;;;11.60;10.90;;;;;;;;;;5072164;28;20024;-69
2023/03/13 05:17:46;;;;;;;9.98;9.48;;;;;;;;;;5070962;28;20020;-67
2023/03/13 05:20:11;;;;;;;10.38;9.77;;;;;;;;;;5070573;28;20024;-68
2023/03/13 05:22:37;;;;;;;9.68;9.18;;;;;;;;;;5074832;28;20494;-68
2023/03/13 05:25:04;;;;;;;11.00;10.40;;;;;;;;;;5067702;28;20032;-67
2023/03/13 05:27:29;;;;;;;10.23;9.73;;;;;;;;;;5080223;28;20443;-67
2023/03/13 05:29:54;;;;;;;11.10;10.48;;;;;;;;;;5072265;28;20021;-68
2023/03/13 05:32:20;;;;;;;10.32;9.77;;;;;;;;;;5072826;28;20444;-67
2023/03/13 05:34:45;;;;;;;10.85;10.25;;;;;;;;;;5075294;28;20020;-68
2023/03/13 05:37:10;;;;;;;10.98;10.38;;;;;;;;;;5077462;28;20025;-68
2023/03/13 05:39:36;;;;;;;11.57;10.88;;;;;;;;;;5066440;28;20484;-67
2023/03/13 05:42:01;;;;;;;11.48;10.80;;;;;;;;;;5088321;28;20036;-68
2023/03/13 05:44:26;;;;;;;11.10;10.50;;;;;;;;;;5070677;28;20103;-68
2023/03/13 05:46:52;;;;;;;11.32;10.70;;;;;;;;;;5071680;28;20032;-68
2023/03/13 05:49:17;;;;;;;11.10;10.50;;;;;;;;;;5062205;28;20040;-68
2023/03/13 05:51:42;;;;;;;11.30;10.70;;;;;;;;;;5073476;28;20032;-68
2023/03/13 05:54:08;;;;;;;11.60;10.90;;;;;;;;;;5072607;28;20138;-68
2023/03/13 05:56:33;;;;;;;11.05;10.45;;;;;;;;;;5081424;28;20052;-67
2023/03/13 05:58:58;;;;;;;10.90;10.30;;;;;;;;;;5070195;28;20035;-67
2023/03/13 06:01:24;;;;;;;10.43;9.82;;;;;;;;;;5070031;28;20020;-67
2023/03/13 06:03:49;;;;;;;9.63;9.13;;;;;;;;;;5071511;28;20044;-68
2023/03/13 06:06:14;;;;;;;9.82;9.32;;;;;;;;;;5080647;28;20060;-67
2023/03/13 06:08:40;;;;;;;9.85;9.35;;;;;;;;;;5079303;28;20085;-67
2023/03/13 06:11:05;;;;;;;9.20;8.80;;;;;;;;;;5079132;28;20025;-67
2023/03/13 06:13:30;;;;;;;10.27;9.77;;;;;;;;;;5058493;28;20025;-68
2023/03/13 06:15:56;;;;;;;9.50;9.10;;;;;;;;;;5063324;28;20048;-67
2023/03/13 06:18:22;;;;;;;9.15;8.75;;;;;;;;;;5059529;28;20023;-65
2023/03/13 06:20:48;;;;;;;9.95;9.48;;;;;;;;;;5065052;27;20103;-66
2023/03/13 06:23:13;;;;;;;9.52;9.13;;;;;;;;;;5066163;28;20048;-66
2023/03/13 06:25:39;;;;;;;9.85;9.38;;;;;;;;;;5059867;28;20152;-66
2023/03/13 06:28:04;;;;;;;10.65;10.15;;;;;;;;;;5064164;28;20024;-66
2023/03/13 06:30:29;;;;;;;10.73;10.23;;;;;;;;;;5068904;28;20484;-65
2023/03/13 06:32:54;;;;;;;10.43;9.93;;;;;;;;;;5071951;28;20017;-65
2023/03/13 06:35:20;;;;;;;10.30;9.80;;;;;;;;;;5071520;28;20024;-66
2023/03/13 06:37:45;;;;;;;10.75;10.25;;;;;;;;;;5071837;28;20100;-66
2023/03/13 06:40:11;;;;;;;9.73;9.32;;;;;;;;;;5067541;28;20028;-66
2023/03/13 06:42:36;;;;;;;11.02;10.43;;;;;;;;;;5061154;28;20051;-65
2023/03/13 06:45:02;;;;;;;10.20;9.70;;;;;;;;;;5070859;28;20459;-67
2023/03/13 06:47:29;;;;;;;10.48;9.98;;;;;;;;;;5070131;28;20032;-66
2023/03/13 06:49:54;;;;;;;9.60;9.20;;;;;;;;;;5070371;28;20406;-67
2023/03/13 06:52:20;;;;;;;9.30;8.90;;;;;;;;;;5076913;28;20024;-65
2023/03/13 06:54:45;;;;;;;9.70;9.20;;;;;;;;;;5071568;28;20024;-66
2023/03/13 06:57:10;;;;;;;9.13;8.73;;;;;;;;;;5069111;28;20135;-65
2023/03/13 06:59:36;;;;;;;9.30;8.90;;;;;;;;;;5060822;28;20025;-65
2023/03/13 07:02:01;;;;;;;9.68;9.27;;;;;;;;;;5065293;28;20110;-66
2023/03/13 07:04:26;;;;;;;9.60;9.20;;;;;;;;;;5072167;28;20472;-66
2023/03/13 07:06:52;;;;;;;9.77;9.38;;;;;;;;;;5071331;28;20021;-66
2023/03/13 07:09:18;;;;;;;9.65;9.25;;;;;;;;;;5071950;28;20090;-66
2023/03/13 07:11:44;;;;;;;10.48;9.98;;;;;;;;;;5071554;28;20024;-67
2023/03/13 07:14:09;;;;;;;10.25;9.82;;;;;;;;;;5071497;28;20152;-66
2023/03/13 07:16:35;;;;;;;9.88;9.48;;;;;;;;;;5071488;28;20031;-66
2023/03/13 07:19:00;;;;;;;10.10;9.63;;;;;;;;;;5064855;28;20024;-66
2023/03/13 07:21:25;;;;;;;11.18;10.68;;;;;;;;;;5069967;28;20035;-67
2023/03/13 07:23:51;;;;;;;10.50;10.00;;;;;;;;;;5071403;28;20017;-66
2023/03/13 07:26:16;;;;;;;11.00;10.50;;;;;;;;;;5071175;28;20057;-67
2023/03/13 07:28:42;;;;;;;10.98;10.48;;;;;;;;;;5062207;28;20092;-66
2023/03/13 07:31:12;;;;;;;9.93;9.52;;;;;;;;;;5069018;28;20104;-66
2023/03/13 07:33:37;;;;;;;10.27;9.77;;;;;;;;;;5076697;28;20055;-66
2023/03/13 07:36:03;;;;;;;11.10;10.60;;;;;;;;;;5080939;28;20028;-66
2023/03/13 07:38:28;;;;;;;11.40;10.90;;;;;;;;;;5070545;28;20031;-66
2023/03/13 07:40:55;;;;;;;10.57;10.07;;;;;;;;;;5071761;28;20119;-66
2023/03/13 07:43:20;;;;;;;10.77;10.27;;;;;;;;;;5068763;28;20389;-66
2023/03/13 07:45:59;;;;;;;10.73;10.23;;;;;;;;;;5060626;28;20017;-67
2023/03/13 07:48:27;;;;;;;11.52;11.02;;;;;;;;;;5059089;28;20113;-67
2023/03/13 07:50:53;;;;;;;11.10;10.60;;;;;;;;;;5063193;28;20027;-65
2023/03/13 07:53:21;;;;;;;11.20;10.70;;;;;;;;;;5070367;28;20100;-66
2023/03/13 07:56:02;;;;;;;12.05;11.45;;;;;;;;;;5069773;28;20733;-66
2023/03/13 07:58:28;;;;;;;11.38;10.88;;;;;;;;;;5065884;28;20021;-66
2023/03/13 08:00:54;;;;;;;11.07;10.57;;;;;;;;;;5062421;28;20112;-64
2023/03/13 08:03:20;;;;;;;10.82;10.32;;;;;;;;;;5076751;28;20099;-65
2023/03/13 08:05:46;;;;;;;11.18;10.68;;;;;;;;;;5066352;28;20024;-66
2023/03/13 08:08:11;;;;;;;11.60;11.10;;;;;;;;;;5068518;28;20062;-65
2023/03/13 08:10:37;;;;;;;11.55;11.05;;;;;;;;;;5063224;28;20028;-71
2023/03/13 08:13:02;;;;;;;10.75;10.25;;;;;;;;;;5083704;28;20116;-67
2023/03/13 08:15:28;;;;;;;11.13;10.63;;;;;;;;;;5073955;28;20049;-67
2023/03/13 08:17:56;;;;;;;11.07;10.57;;;;;;;;;;5068251;28;20731;-67
2023/03/13 08:20:21;;;;;;;11.48;10.98;;;;;;;;;;5079788;28;20035;-65
2023/03/13 08:22:47;;;;;;;11.25;10.75;;;;;;;;;;5062763;28;20391;-69
2023/03/13 08:25:12;;;;;;;10.00;9.60;;;;;;;;;;5074670;28;20490;-68
2023/03/13 08:27:38;;;;;;;11.10;10.60;;;;;;;;;;5079402;28;20020;-67
2023/03/13 08:30:03;;;;;;;10.77;10.27;;;;;;;;;;5074910;28;20023;-67
2023/03/13 08:32:31;;;;;;;10.60;10.10;;;;;;;;;;5076800;28;20089;-67
2023/03/13 08:34:57;;;;;;;11.80;11.25;;;;;;;;;;5067419;28;20028;-65
2023/03/13 08:37:22;;;;;;;10.70;10.20;;;;;;;;;;5077779;28;20364;-63
2023/03/13 08:39:48;;;;;;;10.45;9.95;;;;;;;;;;5077035;28;20044;-66
2023/03/13 08:42:14;;;;;;;11.27;10.77;;;;;;;;;;5062149;28;20169;-63
2023/03/13 08:44:39;;;;;;;11.15;10.65;;;;;;;;;;5061637;28;20567;-66
2023/03/13 08:47:04;;;;;;;11.40;10.90;;;;;;;;;;5070099;28;20724;-65
2023/03/13 08:49:30;;;;;;;11.50;10.98;;;;;;;;;;5085524;28;20028;-65
2023/03/13 08:51:55;;;;;;;12.23;11.63;;;;;;;;;;5070619;28;20395;-64
2023/03/13 08:54:20;;;;;;;11.95;11.35;;;;;;;;;;5068619;28;20029;-66
2023/03/13 08:56:46;;;;;;;11.68;11.07;;;;;;;;;;5083505;28;20819;-65
2023/03/13 08:59:11;;;;;;;13.18;12.48;;;;;;;;;;5061448;28;20428;-64
2023/03/13 09:01:36;;;;;;;12.73;12.02;;;;;;;;;;5071321;28;20347;-65
2023/03/13 09:04:03;;;;;;;11.93;11.32;;;;;;;;;;5071085;28;20019;-63
2023/03/13 09:06:29;;;;;;;12.20;11.60;;;;;;;;;;5072861;28;20561;-66
2023/03/13 09:08:55;;;;;;;12.02;11.43;;;;;;;;;;5069682;28;20093;-66
2023/03/13 09:11:21;;;;;;;13.13;12.40;;;;;;;;;;5075912;28;20043;-65
2023/03/13 09:13:47;;;;;;;12.43;11.73;;;;;;;;;;5065242;28;20025;-66
2023/03/13 09:16:14;;;;;;;11.68;11.07;;;;;;;;;;5076150;28;20032;-66
2023/03/13 09:18:39;;;;;;;12.57;11.88;;;;;;;;;;5068307;28;20025;-67
2023/03/13 09:21:06;;;;;;;10.55;10.05;;;;;;;;;;5072325;28;20623;-65
2023/03/13 09:23:31;;;;;;;12.25;11.55;;;;;;;;;;5086938;28;20020;-66
2023/03/13 09:25:57;;;;;;;11.85;11.25;;;;;;;;;;5074014;28;20103;-67
2023/03/13 09:28:23;;;;;;;11.55;10.95;;;;;;;;;;5068476;28;20032;-66
2023/03/13 09:30:48;;;;;;;10.52;10.02;;;;;;;;;;5063369;28;20074;-65
2023/03/13 09:33:14;;;;;;;11.65;11.05;;;;;;;;;;5074092;28;20036;-65
2023/03/13 09:35:40;;;;;;;12.57;11.88;;;;;;;;;;5067222;28;20025;-66
2023/03/13 09:38:05;;;;;;;13.15;12.45;;;;;;;;;;5067553;28;20031;-67
2023/03/13 09:40:35;;;;;;;13.20;12.50;;;;;;;;;;5061691;28;20017;-71
2023/03/13 09:43:00;;;;;;;13.07;12.38;;;;;;;;;;5060286;28;20479;-69
2023/03/13 09:45:34;;;;;;;11.77;11.18;;;;;;;;;;5057541;28;20078;-67
2023/03/13 09:48:03;;;;;;;11.23;10.63;;;;;;;;;;5074357;28;20058;-67
2023/03/13 09:50:31;;;;;;;10.98;10.48;;;;;;;;;;5079029;28;20035;-67
2023/03/13 09:52:58;;;;;;;11.38;10.77;;;;;;;;;;5063714;28;20052;-67
2023/03/13 09:55:31;;;;;;;10.45;9.95;;;;;;;;;;5061806;28;20587;-67
2023/03/13 09:58:15;;;;;;;11.85;11.25;;;;;;;;;;5060876;28;20471;-64
2023/03/13 10:00:43;;;;;;;11.93;11.30;;;;;;;;;;5062710;28;20032;-66
2023/03/13 10:03:15;;;;;;;11.73;11.13;;;;;;;;;;5062930;28;20111;-65
2023/03/13 10:05:48;;;;;;;11.93;11.25;;;;;;;;;;5062424;28;20091;-65
2023/03/13 10:08:39;;;;;;;10.82;10.27;;;;;;;;;;5071370;28;20530;-67
2023/03/13 10:11:10;;;;;;;11.52;10.93;;;;;;;;;;5064111;28;20040;-64
2023/03/13 10:13:54;;;;;;;11.75;11.15;;;;;;;;;;5063896;28;20028;-66
2023/03/13 10:16:23;;;;;;;11.60;11.00;;;;;;;;;;5060702;28;20036;-64
2023/03/13 10:18:52;;;;;;;11.82;11.15;;;;;;;;;;5065293;28;20187;-64
2023/03/13 10:21:19;;;;;;;12.38;11.68;;;;;;;;;;5058707;28;20025;-65
2023/03/13 10:23:47;;;;;;;11.32;10.73;;;;;;;;;;5071041;28;20483;-65
2023/03/13 10:26:18;;;;;;;11.10;10.50;;;;;;;;;;5068317;28;20016;-66
2023/03/13 10:28:43;;;;;;;12.10;11.40;;;;;;;;;;5063331;28;20027;-67
2023/03/13 10:31:25;;;;;;;11.82;11.20;;;;;;;;;;5071109;28;20032;-64
2023/03/13 10:33:51;;;;;;;10.63;10.13;;;;;;;;;;5066851;28;20107;-65
2023/03/13 10:36:18;;;;;;;11.25;10.65;;;;;;;;;;5074174;28;20178;-69
2023/03/13 10:38:45;;;;;;;12.35;11.65;;;;;;;;;;5072005;28;20032;-68
2023/03/13 10:41:23;;;;;;;11.00;10.40;;;;;;;;;;5066458;28;20364;-66
2023/03/13 10:43:50;;;;;;;11.27;10.68;;;;;;;;;;5056934;28;20039;-67
2023/03/13 10:46:22;;;;;;;12.23;11.52;;;;;;;;;;5062498;28;20039;-64
2023/03/13 10:48:48;;;;;;;11.88;11.23;;;;;;;;;;5068944;28;20079;-66
2023/03/13 10:51:20;;;;;;;11.85;11.18;;;;;;;;;;5061282;28;20056;-66
2023/03/13 10:53:45;;;;;;;11.27;10.68;;;;;;;;;;5069256;28;20036;-66
2023/03/13 10:56:12;;;;;;;11.25;10.65;;;;;;;;;;5064248;28;20183;-67
2023/03/13 10:58:45;;;;;;;11.95;11.30;;;;;;;;;;5053880;28;20025;-65
2023/03/13 11:01:10;;;;;;;11.02;10.43;;;;;;;;;;5066804;28;20547;-67
2023/03/13 11:03:35;;;;;;;11.88;11.23;;;;;;;;;;5063127;28;20169;-68
2023/03/13 11:06:02;;;;;;;11.25;10.65;;;;;;;;;;5065481;28;20039;-65
2023/03/13 11:08:33;;;;;;;11.00;10.40;;;;;;;;;;5066505;28;20054;-65
2023/03/13 11:11:02;;;;;;;10.82;10.25;;;;;;;;;;5072950;28;20078;-66
2023/03/13 11:13:43;;;;;;;12.38;11.68;;;;;;;;;;5071111;28;20017;-68
2023/03/13 11:16:19;;;;;;;11.27;10.68;;;;;;;;;;5060464;28;20036;-65
2023/03/13 11:18:48;;;;;;;12.25;11.55;;;;;;;;;;5061493;28;20175;-66
2023/03/13 11:21:25;;;;;;;11.27;10.68;;;;;;;;;;5067341;28;20023;-66
2023/03/13 11:24:00;;;;;;;10.65;10.15;;;;;;;;;;5051813;28;20016;-67
2023/03/13 11:26:25;;;;;;;10.50;10.00;;;;;;;;;;5067563;28;20035;-68
2023/03/13 11:29:23;;;;;;;11.10;10.50;;;;;;;;;;5069470;28;20028;-67
2023/03/13 11:31:57;;;;;;;10.15;9.65;;;;;;;;;;5067298;28;20076;-69
2023/03/13 11:34:27;;;;;;;10.93;10.32;;;;;;;;;;5061823;28;20024;-68
2023/03/13 11:36:55;;;;;;;10.27;9.77;;;;;;;;;;5068218;28;20125;-67
2023/03/13 11:39:26;;;;;;;10.55;10.05;;;;;;;;;;5064040;28;20462;-68
2023/03/13 11:41:55;;;;;;;10.52;10.02;;;;;;;;;;5068580;28;20032;-67
2023/03/13 11:44:23;;;;;;;11.10;10.50;;;;;;;;;;5070177;28;20104;-68
2023/03/13 11:47:03;;;;;;;9.68;9.27;;;;;;;;;;5079154;28;20028;-68
2023/03/13 11:49:29;;;;;;;11.13;10.52;;;;;;;;;;5068392;28;20028;-68
2023/03/13 11:52:03;;;;;;;10.70;10.20;;;;;;;;;;5059753;28;20040;-68
2023/03/13 11:54:28;;;;;;;10.77;10.27;;;;;;;;;;5069591;28;20032;-68
2023/03/13 11:56:55;;;;;;;10.10;9.60;;;;;;;;;;5073877;28;20056;-67
2023/03/13 11:59:20;;;;;;;9.65;9.25;;;;;;;;;;5103094;27;20024;-64
2023/03/13 12:01:49;;;;;;;10.57;10.07;;;;;;;;;;5075014;28;20021;-66
2023/03/13 12:04:21;;;;;;;10.88;10.35;;;;;;;;;;5068855;28;20028;-65
2023/03/13 12:06:51;;;;;;;11.40;10.80;;;;;;;;;;5066569;28;20025;-64
2023/03/13 12:09:19;;;;;;;10.27;9.77;;;;;;;;;;5063895;28;20028;-65
2023/03/13 12:11:50;;;;;;;9.93;9.43;;;;;;;;;;5069716;28;20027;-63
2023/03/13 12:14:16;;;;;;;10.57;10.07;;;;;;;;;;5072445;28;20045;-65
2023/03/13 12:16:41;;;;;;;11.20;10.60;;;;;;;;;;5062339;28;20024;-65
2023/03/13 12:19:10;;;;;;;10.30;9.80;;;;;;;;;;5071518;28;20067;-65
2023/03/13 12:21:41;;;;;;;10.07;9.57;;;;;;;;;;5072952;28;20495;-65
2023/03/13 12:24:13;;;;;;;10.60;10.10;;;;;;;;;;5072950;28;20104;-65
2023/03/13 12:26:39;;;;;;;12.20;11.52;;;;;;;;;;5071249;28;20827;-63
2023/03/13 12:29:23;;;;;;;10.63;10.13;;;;;;;;;;5078651;28;20059;-64
2023/03/13 12:31:55;;;;;;;10.43;9.93;;;;;;;;;;5072329;28;20498;-65
2023/03/13 12:34:26;;;;;;;10.40;9.90;;;;;;;;;;5072740;28;20127;-64
2023/03/13 12:37:01;;;;;;;11.10;10.50;;;;;;;;;;5072558;28;20024;-65
2023/03/13 12:39:49;;;;;;;11.25;10.65;;;;;;;;;;5072794;28;20048;-66
2023/03/13 12:42:33;;;;;;;12.20;11.52;;;;;;;;;;5071437;28;20025;-64
2023/03/13 12:44:58;;;;;;;11.30;10.70;;;;;;;;;;5065214;28;20027;-66
2023/03/13 12:47:29;;;;;;;11.48;10.88;;;;;;;;;;5070228;28;20037;-66
2023/03/13 12:49:55;;;;;;;9.98;9.48;;;;;;;;;;5064272;28;20028;-65
2023/03/13 12:52:23;;;;;;;10.00;9.50;;;;;;;;;;5063112;28;20028;-64
2023/03/13 12:54:48;;;;;;;11.20;10.60;;;;;;;;;;5077789;28;20035;-66
2023/03/13 12:57:34;;;;;;;9.70;9.30;;;;;;;;;;5073062;28;20048;-66
2023/03/13 13:00:04;;;;;;;10.07;9.57;;;;;;;;;;5066952;28;20044;-65
2023/03/13 13:02:30;;;;;;;9.95;9.45;;;;;;;;;;5082138;28;20138;-66
2023/03/13 13:04:56;;;;;;;11.40;10.80;;;;;;;;;;5072897;28;20028;-62
2023/03/13 13:07:26;;;;;;;10.82;10.32;;;;;;;;;;5056480;28;20051;-64
2023/03/13 13:09:58;;;;;;;11.52;10.93;;;;;;;;;;5066873;28;20058;-64
2023/03/13 13:12:24;;;;;;;10.80;10.30;;;;;;;;;;5074489;28;20024;-65
2023/03/13 13:14:50;;;;;;;11.07;10.48;;;;;;;;;;5062663;28;20016;-65
2023/03/13 13:17:18;;;;;;;11.18;10.57;;;;;;;;;;5063221;28;20399;-64
2023/03/13 13:19:44;;;;;;;11.63;11.02;;;;;;;;;;5064975;28;20052;-65
2023/03/13 13:22:28;;;;;;;11.27;10.68;;;;;;;;;;5056200;28;20210;-63
2023/03/13 13:24:53;;;;;;;11.05;10.45;;;;;;;;;;5070592;28;20020;-63
2023/03/13 13:27:31;;;;;;;11.40;10.80;;;;;;;;;;5066513;28;20023;-63
2023/03/13 13:29:58;;;;;;;11.95;11.35;;;;;;;;;;5055745;28;20005;-67
2023/03/13 13:32:30;;;;;;;11.25;10.65;;;;;;;;;;5082410;28;20039;-66
2023/03/13 13:35:11;;;;;;;10.77;10.27;;;;;;;;;;5077419;28;20024;-64
2023/03/13 13:37:37;;;;;;;11.68;11.07;;;;;;;;;;5074593;28;20107;-66
2023/03/13 13:40:16;;;;;;;11.98;11.38;;;;;;;;;;5070979;28;20119;-63
2023/03/13 13:42:47;;;;;;;11.60;11.00;;;;;;;;;;5077929;28;20074;-65
2023/03/13 13:45:16;;;;;;;11.65;11.05;;;;;;;;;;5077983;28;20017;-65
2023/03/13 13:47:45;;;;;;;11.80;11.20;;;;;;;;;;5070418;28;20062;-67
2023/03/13 13:50:19;;;;;;;11.90;11.30;;;;;;;;;;5066770;28;20120;-69
2023/03/13 13:52:45;;;;;;;11.38;10.77;;;;;;;;;;5061408;28;20078;-66
2023/03/13 13:55:29;;;;;;;12.60;11.90;;;;;;;;;;5061901;28;20036;-70
2023/03/13 13:57:59;;;;;;;11.68;11.07;;;;;;;;;;5054952;28;20064;-70
2023/03/13 14:00:33;;;;;;;12.02;11.43;;;;;;;;;;5070208;28;20031;-70
2023/03/13 14:02:58;;;;;;;11.43;10.82;;;;;;;;;;5058186;28;20017;-71
2023/03/13 14:05:28;;;;;;;11.65;11.05;;;;;;;;;;5062487;28;20024;-71
2023/03/13 14:08:05;;;;;;;11.50;10.90;;;;;;;;;;5055903;28;20028;-71
2023/03/13 14:10:38;;;;;;;11.98;11.35;;;;;;;;;;5060849;28;20013;-65
2023/03/13 14:13:11;;;;;;;11.48;10.88;;;;;;;;;;5069824;28;20502;-64
2023/03/13 14:15:39;;;;;;;11.18;10.57;;;;;;;;;;5061885;28;20406;-66
2023/03/13 14:18:14;;;;;;;11.60;11.00;;;;;;;;;;5063116;28;20155;-63
2023/03/13 14:21:00;;;;;;;12.77;12.07;;;;;;;;;;5068176;28;20028;-66
2023/03/13 14:23:41;;;;;;;11.52;10.93;;;;;;;;;;5057048;28;20531;-65
2023/03/13 14:26:19;;;;;;;11.50;10.90;;;;;;;;;;5068370;28;20409;-65
2023/03/13 14:28:46;;;;;;;12.20;11.50;;;;;;;;;;5069029;28;20487;-64